createdAt,value
2022-12-03T00:00:24.745Z,98887.31
2022-12-03T00:01:27.493Z,98893.22
2022-12-03T00:02:30.241Z,98889.91
2022-12-03T00:03:36.135Z,98889.72
2022-12-03T00:04:38.968Z,98888.34
2022-12-03T00:05:48.205Z,98893.94
2022-12-03T00:06:51.740Z,98892.19
2022-12-03T00:07:54.582Z,98888.59
2022-12-03T00:08:57.248Z,98896.50
2022-12-03T00:09:59.877Z,98886.69
2022-12-03T00:11:02.692Z,98897.34
2022-12-03T00:12:05.632Z,98891.84
2022-12-03T00:13:08.589Z,98896.63
2022-12-03T00:14:11.404Z,98895.63
2022-12-03T00:15:14.132Z,98894.25
2022-12-03T00:16:16.967Z,98895.41
2022-12-03T00:17:19.913Z,98901.25
2022-12-03T00:18:22.575Z,98897.66
2022-12-03T00:19:25.265Z,98897.44
2022-12-03T00:20:27.922Z,98897.25
2022-12-03T00:21:30.613Z,98898.22
2022-12-03T00:22:33.277Z,98897.09
2022-12-03T00:23:41.745Z,98895.91
2022-12-03T00:24:46.022Z,98895.06
2022-12-03T00:25:48.780Z,98896.41
2022-12-03T00:26:51.474Z,98896.22
2022-12-03T00:27:54.301Z,98910.16
2022-12-03T00:28:57.948Z,98890.03
2022-12-03T00:30:00.530Z,98897.56
2022-12-03T00:31:03.262Z,98898.19
2022-12-03T00:32:06.513Z,98902.09
2022-12-03T00:33:09.209Z,98908.56
2022-12-03T00:34:12.250Z,98905.88
2022-12-03T00:35:14.903Z,98906.66
2022-12-03T00:36:18.288Z,98910.56
2022-12-03T00:37:21.061Z,98911.91
2022-12-03T00:38:23.731Z,98909.56
2022-12-03T00:39:26.514Z,98908.03
2022-12-03T00:40:29.061Z,98901.66
2022-12-03T00:41:31.651Z,98913.78
2022-12-03T00:42:34.370Z,98911.37
2022-12-03T00:43:36.930Z,98904.75
2022-12-03T00:44:39.610Z,98911.03
2022-12-03T00:45:42.228Z,98911.66
2022-12-03T00:46:45.541Z,98914.16
2022-12-03T00:47:49.038Z,98905.34
2022-12-03T00:48:51.926Z,98914.47
2022-12-03T00:49:54.895Z,98912.88
2022-12-03T00:50:57.498Z,98911.31
2022-12-03T00:52:01.669Z,98917.75
2022-12-03T00:53:04.377Z,98914.66
2022-12-03T00:54:07.393Z,98912.44
2022-12-03T00:55:10.239Z,98913.09
2022-12-03T00:56:13.210Z,98913.66
2022-12-03T00:57:15.972Z,98906.72
2022-12-03T00:58:19.181Z,98908.28
2022-12-03T00:59:22.005Z,98910.09
2022-12-03T01:00:25.550Z,98903.75
2022-12-03T01:01:28.492Z,98903.22
2022-12-03T01:02:31.576Z,98906.50
2022-12-03T01:03:34.643Z,98902.97
2022-12-03T01:04:37.847Z,98902.19
2022-12-03T01:05:40.490Z,98902.19
2022-12-03T01:06:43.620Z,98903.72
2022-12-03T01:07:47.067Z,98902.06
2022-12-03T01:08:49.996Z,98900.19
2022-12-03T01:09:52.894Z,98903.13
2022-12-03T01:10:55.621Z,98903.41
2022-12-03T01:11:58.312Z,98906.13
2022-12-03T01:13:00.976Z,98909.50
2022-12-03T01:14:08.759Z,98905.03
2022-12-03T01:15:12.084Z,98906.09
2022-12-03T01:16:14.783Z,98901.81
2022-12-03T01:17:17.537Z,98899.25
2022-12-03T01:18:21.311Z,98908.56
2022-12-03T01:19:24.649Z,98907.56
2022-12-03T01:20:27.894Z,98900.22
2022-12-03T01:21:31.117Z,98902.97
2022-12-03T01:22:33.866Z,98898.59
2022-12-03T01:23:36.611Z,98906.22
2022-12-03T01:24:39.172Z,98901.41
2022-12-03T01:25:41.889Z,98904.84
2022-12-03T01:26:45.171Z,98902.69
2022-12-03T01:27:47.764Z,98901.91
2022-12-03T01:28:50.453Z,98900.34
2022-12-03T01:29:53.155Z,98908.03
2022-12-03T01:31:14.563Z,98914.03
2022-12-03T01:32:17.498Z,98907.62
2022-12-03T01:33:20.370Z,98913.56
2022-12-03T01:34:23.010Z,98911.81
2022-12-03T01:35:25.653Z,98908.12
2022-12-03T01:36:29.389Z,98916.66
2022-12-03T01:37:32.134Z,98908.28
2022-12-03T01:38:34.767Z,98914.03
2022-12-03T01:39:37.423Z,98908.78
2022-12-03T01:40:40.155Z,98911.31
2022-12-03T01:41:42.842Z,98914.16
2022-12-03T01:42:45.639Z,98913.13
2022-12-03T01:43:50.247Z,98913.88
2022-12-03T01:44:56.291Z,98916.19
2022-12-03T01:45:59.064Z,98916.31
2022-12-03T01:47:06.636Z,98926.97
2022-12-03T01:48:12.899Z,98924.91
2022-12-03T01:49:25.566Z,98919.50
2022-12-03T01:50:32.931Z,98922.50
2022-12-03T01:51:35.725Z,98925.09
2022-12-03T01:52:39.629Z,98925.84
2022-12-03T01:53:44.033Z,98922.91
2022-12-03T01:54:51.457Z,98926.19
2022-12-03T01:55:54.386Z,98917.50
2022-12-03T01:56:57.179Z,98920.09
2022-12-03T01:58:02.169Z,98916.94
2022-12-03T01:59:05.168Z,98916.09
2022-12-03T02:00:13.248Z,98919.66
2022-12-03T02:01:18.371Z,98917.75
2022-12-03T02:02:25.291Z,98913.63
2022-12-03T02:03:27.981Z,98912.31
2022-12-03T02:04:31.014Z,98907.62
2022-12-03T02:05:34.708Z,98908.34
2022-12-03T02:06:37.584Z,98913.88
2022-12-03T02:07:40.363Z,98907.97
2022-12-03T02:08:44.057Z,98905.56
2022-12-03T02:09:46.767Z,98910.72
2022-12-03T02:10:49.473Z,98902.19
2022-12-03T02:11:52.532Z,98910.16
2022-12-03T02:13:08.101Z,98911.13
2022-12-03T02:14:21.067Z,98912.94
2022-12-03T02:15:24.183Z,98913.56
2022-12-03T02:16:27.039Z,98909.34
2022-12-03T02:17:29.908Z,98911.28
2022-12-03T02:18:32.604Z,98909.84
2022-12-03T02:19:36.011Z,98910.25
2022-12-03T02:21:04.362Z,98905.09
2022-12-03T02:22:12.721Z,98904.69
2022-12-03T02:23:30.971Z,98907.56
2022-12-03T02:25:00.211Z,98906.56
2022-12-03T02:26:03.010Z,98913.19
2022-12-03T02:27:05.732Z,98909.22
2022-12-03T02:28:09.892Z,98904.56
2022-12-03T02:29:12.688Z,98904.50
2022-12-03T02:30:19.976Z,98902.31
2022-12-03T02:31:23.773Z,98896.22
2022-12-03T02:32:26.535Z,98897.25
2022-12-03T02:33:29.248Z,98897.72
2022-12-03T02:34:41.612Z,98906.31
2022-12-03T02:35:45.010Z,98905.53
2022-12-03T02:36:47.811Z,98905.63
2022-12-03T02:37:56.290Z,98907.50
2022-12-03T02:38:59.124Z,98906.22
2022-12-03T02:40:09.494Z,98897.94
2022-12-03T02:41:35.380Z,98904.50
2022-12-03T02:42:39.026Z,98907.47
2022-12-03T02:43:41.704Z,98908.41
2022-12-03T02:44:44.808Z,98914.72
2022-12-03T02:45:52.345Z,98906.81
2022-12-03T02:46:55.154Z,98904.94
2022-12-03T02:48:01.491Z,98910.06
2022-12-03T02:49:06.170Z,98905.09
2022-12-03T02:50:11.168Z,98914.62
2022-12-03T02:51:13.924Z,98906.09
2022-12-03T02:52:16.858Z,98911.37
2022-12-03T02:53:24.866Z,98912.00
2022-12-03T02:54:27.627Z,98908.53
2022-12-03T02:55:36.827Z,98909.72
2022-12-03T02:56:40.304Z,98912.63
2022-12-03T02:57:46.060Z,98909.03
2022-12-03T02:58:52.130Z,98912.00
2022-12-03T02:59:55.523Z,98912.75
2022-12-03T03:00:59.825Z,98911.72
2022-12-03T03:02:02.647Z,98913.78
2022-12-03T03:03:08.177Z,98908.28
2022-12-03T03:04:10.914Z,98914.09
2022-12-03T03:05:15.652Z,98907.75
2022-12-03T03:06:19.657Z,98905.69
2022-12-03T03:07:22.730Z,98906.88
2022-12-03T03:08:25.940Z,98907.25
2022-12-03T03:09:28.747Z,98903.81
2022-12-03T03:10:34.490Z,98900.19
2022-12-03T03:11:37.218Z,98903.41
2022-12-03T03:12:40.237Z,98905.03
2022-12-03T03:13:43.362Z,98900.22
2022-12-03T03:14:45.995Z,98910.16
2022-12-03T03:15:48.856Z,98907.78
2022-12-03T03:16:56.382Z,98907.78
2022-12-03T03:17:59.290Z,98908.12
2022-12-03T03:19:02.618Z,98907.19
2022-12-03T03:20:07.594Z,98916.31
2022-12-03T03:21:10.530Z,98924.41
2022-12-03T03:22:13.392Z,98916.13
2022-12-03T03:23:19.631Z,98909.56
2022-12-03T03:24:23.584Z,98915.16
2022-12-03T03:25:26.156Z,98912.84
2022-12-03T03:26:29.030Z,98915.22
2022-12-03T03:27:32.753Z,98909.22
2022-12-03T03:28:39.276Z,98913.19
2022-12-03T03:29:42.216Z,98910.19
2022-12-03T03:30:45.322Z,98905.47
2022-12-03T03:31:48.612Z,98905.94
2022-12-03T03:32:51.359Z,98916.09
2022-12-03T03:33:54.235Z,98911.16
2022-12-03T03:34:57.558Z,98911.22
2022-12-03T03:36:01.240Z,98906.47
2022-12-03T03:37:03.976Z,98902.09
2022-12-03T03:38:08.554Z,98903.03
2022-12-03T03:39:11.853Z,98902.94
2022-12-03T03:40:14.644Z,98904.31
2022-12-03T03:41:19.465Z,98903.63
2022-12-03T03:42:22.967Z,98906.81
2022-12-03T03:43:26.178Z,98913.44
2022-12-03T03:44:29.385Z,98900.75
2022-12-03T03:45:32.294Z,98913.03
2022-12-03T03:46:37.189Z,98909.34
2022-12-03T03:47:40.572Z,98908.56
2022-12-03T03:48:44.240Z,98906.72
2022-12-03T03:49:48.296Z,98912.34
2022-12-03T03:50:52.149Z,98910.87
2022-12-03T03:51:55.514Z,98907.00
2022-12-03T03:53:00.852Z,98904.75
2022-12-03T03:54:05.951Z,98913.09
2022-12-03T03:55:10.851Z,98910.59
2022-12-03T03:56:14.646Z,98907.41
2022-12-03T03:57:17.484Z,98912.47
2022-12-03T03:58:20.135Z,98921.78
2022-12-03T03:59:23.368Z,98913.53
2022-12-03T04:00:26.331Z,98906.22
2022-12-03T04:01:29.792Z,98913.38
2022-12-03T04:02:33.245Z,98911.22
2022-12-03T04:03:35.936Z,98911.72
2022-12-03T04:04:38.643Z,98906.03
2022-12-03T04:05:41.573Z,98905.09
2022-12-03T04:06:44.251Z,98917.56
2022-12-03T04:07:47.393Z,98915.59
2022-12-03T04:08:50.088Z,98912.50
2022-12-03T04:09:52.808Z,98918.09
2022-12-03T04:11:14.060Z,98911.78
2022-12-03T04:12:35.329Z,98905.47
2022-12-03T04:13:38.249Z,98909.91
2022-12-03T04:14:40.849Z,98922.38
2022-12-03T04:15:43.648Z,98915.41
2022-12-03T04:16:46.322Z,98917.66
2022-12-03T04:18:09.930Z,98918.81
2022-12-03T04:19:12.633Z,98915.88
2022-12-03T04:20:15.964Z,98909.72
2022-12-03T04:21:39.611Z,98916.03
2022-12-03T04:22:42.188Z,98914.66
2022-12-03T04:23:45.032Z,98912.56
2022-12-03T04:24:47.832Z,98911.91
2022-12-03T04:26:09.025Z,98915.00
2022-12-03T04:27:38.333Z,98914.31
2022-12-03T04:28:50.350Z,98910.50
2022-12-03T04:29:53.007Z,98912.47
2022-12-03T04:30:55.819Z,98906.81
2022-12-03T04:32:17.091Z,98905.28
2022-12-03T04:33:38.264Z,98901.41
2022-12-03T04:34:59.462Z,98897.34
2022-12-03T04:36:02.145Z,98907.06
2022-12-03T04:37:05.313Z,98897.31
2022-12-03T04:38:08.055Z,98908.06
2022-12-03T04:39:10.957Z,98900.38
2022-12-03T04:40:32.036Z,98901.59
2022-12-03T04:41:34.523Z,98904.34
2022-12-03T04:42:37.124Z,98896.81
2022-12-03T04:43:59.844Z,98912.22
2022-12-03T04:45:02.535Z,98909.50
2022-12-03T04:46:05.824Z,98913.28
2022-12-03T04:47:16.985Z,98913.66
2022-12-03T04:48:19.840Z,98916.31
2022-12-03T04:49:23.144Z,98913.13
2022-12-03T04:50:25.726Z,98924.38
2022-12-03T04:51:28.529Z,98920.84
2022-12-03T04:52:31.247Z,98914.59
2022-12-03T04:53:36.210Z,98915.19
2022-12-03T04:54:39.627Z,98912.53
2022-12-03T04:55:42.448Z,98920.94
2022-12-03T04:56:45.650Z,98922.66
2022-12-03T04:57:48.311Z,98914.66
2022-12-03T04:58:50.954Z,98917.84
2022-12-03T04:59:53.690Z,98915.34
2022-12-03T05:00:56.852Z,98916.88
2022-12-03T05:01:59.884Z,98917.25
2022-12-03T05:03:02.677Z,98920.19
2022-12-03T05:04:05.584Z,98916.09
2022-12-03T05:05:08.804Z,98925.47
2022-12-03T05:06:11.705Z,98912.56
2022-12-03T05:07:14.581Z,98919.91
2022-12-03T05:08:17.280Z,98918.34
2022-12-03T05:09:20.069Z,98922.16
2022-12-03T05:10:22.970Z,98914.13
2022-12-03T05:11:25.811Z,98930.94
2022-12-03T05:12:28.568Z,98925.87
2022-12-03T05:13:31.305Z,98922.84
2022-12-03T05:14:33.929Z,98926.87
2022-12-03T05:15:36.651Z,98925.87
2022-12-03T05:16:39.791Z,98926.94
2022-12-03T05:17:42.486Z,98923.56
2022-12-03T05:18:45.324Z,98923.25
2022-12-03T05:20:07.145Z,98923.88
2022-12-03T05:21:09.825Z,98924.56
2022-12-03T05:22:12.615Z,98926.34
2022-12-03T05:23:15.436Z,98931.78
2022-12-03T05:24:18.088Z,98926.66
2022-12-03T05:25:20.634Z,98923.72
2022-12-03T05:26:23.230Z,98931.69
2022-12-03T05:27:26.186Z,98924.72
2022-12-03T05:28:28.966Z,98927.84
2022-12-03T05:29:31.713Z,98931.88
2022-12-03T05:30:34.872Z,98926.28
2022-12-03T05:31:37.518Z,98927.50
2022-12-03T05:32:40.407Z,98925.50
2022-12-03T05:33:44.554Z,98929.88
2022-12-03T05:34:47.767Z,98925.56
2022-12-03T05:35:50.483Z,98929.53
2022-12-03T05:36:53.072Z,98931.03
2022-12-03T05:37:55.952Z,98929.47
2022-12-03T05:38:58.714Z,98931.19
2022-12-03T05:40:01.866Z,98931.09
2022-12-03T05:41:25.271Z,98937.12
2022-12-03T05:42:47.024Z,98943.22
2022-12-03T05:43:49.736Z,98933.69
2022-12-03T05:44:53.208Z,98935.69
2022-12-03T05:45:56.409Z,98942.66
2022-12-03T05:46:59.275Z,98932.72
2022-12-03T05:48:03.246Z,98931.28
2022-12-03T05:49:05.995Z,98937.12
2022-12-03T05:50:08.873Z,98935.47
2022-12-03T05:51:11.742Z,98938.91
2022-12-03T05:52:14.464Z,98940.91
2022-12-03T05:53:17.750Z,98945.34
2022-12-03T05:54:20.432Z,98947.84
2022-12-03T05:55:23.150Z,98951.34
2022-12-03T05:56:25.968Z,98955.66
2022-12-03T05:57:28.701Z,98953.88
2022-12-03T05:58:31.387Z,98954.75
2022-12-03T05:59:34.593Z,98951.84
2022-12-03T06:00:42.533Z,98957.00
2022-12-03T06:01:45.940Z,98956.37
2022-12-03T06:02:48.746Z,98963.00
2022-12-03T06:03:51.618Z,98966.19
2022-12-03T06:04:54.619Z,98963.66
2022-12-03T06:05:57.589Z,98962.16
2022-12-03T06:07:00.538Z,98971.78
2022-12-03T06:08:03.585Z,98966.31
2022-12-03T06:09:07.139Z,98965.03
2022-12-03T06:10:12.381Z,98973.19
2022-12-03T06:11:14.968Z,98968.56
2022-12-03T06:12:17.700Z,98967.44
2022-12-03T06:13:20.309Z,98955.09
2022-12-03T06:14:22.973Z,98949.44
2022-12-03T06:15:25.609Z,98951.00
2022-12-03T06:16:28.367Z,98949.34
2022-12-03T06:17:31.121Z,98944.78
2022-12-03T06:18:33.901Z,98943.31
2022-12-03T06:19:36.652Z,98946.63
2022-12-03T06:20:39.307Z,98946.94
2022-12-03T06:21:41.937Z,98950.38
2022-12-03T06:22:45.084Z,98953.22
2022-12-03T06:23:47.832Z,98955.81
2022-12-03T06:24:50.920Z,98956.41
2022-12-03T06:25:53.738Z,98951.00
2022-12-03T06:26:56.458Z,98950.88
2022-12-03T06:27:59.119Z,98946.25
2022-12-03T06:29:01.872Z,98943.84
2022-12-03T06:30:08.990Z,98939.19
2022-12-03T06:31:11.724Z,98944.19
2022-12-03T06:32:14.364Z,98947.28
2022-12-03T06:33:17.108Z,98946.50
2022-12-03T06:34:20.109Z,98950.28
2022-12-03T06:35:22.914Z,98951.16
2022-12-03T06:36:27.891Z,98952.19
2022-12-03T06:37:30.649Z,98944.47
2022-12-03T06:38:33.344Z,98955.38
2022-12-03T06:39:36.183Z,98961.84
2022-12-03T06:40:38.963Z,98954.44
2022-12-03T06:41:41.884Z,98953.66
2022-12-03T06:42:44.816Z,98956.16
2022-12-03T06:43:47.628Z,98962.00
2022-12-03T06:44:50.263Z,98961.06
2022-12-03T06:45:53.148Z,98954.44
2022-12-03T06:46:55.959Z,98953.66
2022-12-03T06:47:58.713Z,98948.72
2022-12-03T06:49:01.787Z,98948.66
2022-12-03T06:50:06.451Z,98957.63
2022-12-03T06:51:09.051Z,98953.47
2022-12-03T06:52:11.820Z,98961.41
2022-12-03T06:53:14.408Z,98959.19
2022-12-03T06:54:17.171Z,98954.25
2022-12-03T06:55:19.850Z,98956.41
2022-12-03T06:56:22.817Z,98957.34
2022-12-03T06:57:25.666Z,98952.59
2022-12-03T06:58:28.397Z,98959.53
2022-12-03T06:59:34.422Z,98952.69
2022-12-03T07:00:37.115Z,98959.25
2022-12-03T07:01:40.628Z,98954.09
2022-12-03T07:02:44.856Z,98956.91
2022-12-03T07:03:47.974Z,98952.88
2022-12-03T07:04:50.612Z,98962.19
2022-12-03T07:05:53.211Z,98960.62
2022-12-03T07:06:55.967Z,98957.47
2022-12-03T07:07:58.690Z,98962.06
2022-12-03T07:09:01.250Z,98962.41
2022-12-03T07:10:04.735Z,98964.22
2022-12-03T07:11:30.566Z,98962.28
2022-12-03T07:12:33.445Z,98960.19
2022-12-03T07:13:36.105Z,98968.25
2022-12-03T07:14:38.841Z,98963.72
2022-12-03T07:15:41.493Z,98968.88
2022-12-03T07:16:44.625Z,98968.31
2022-12-03T07:17:47.407Z,98971.03
2022-12-03T07:18:50.690Z,98963.44
2022-12-03T07:19:53.923Z,98963.28
2022-12-03T07:20:56.579Z,98960.53
2022-12-03T07:21:59.290Z,98960.25
2022-12-03T07:23:01.926Z,98964.13
2022-12-03T07:24:05.753Z,98965.88
2022-12-03T07:25:08.892Z,98960.62
2022-12-03T07:26:11.463Z,98967.38
2022-12-03T07:27:14.022Z,98973.69
2022-12-03T07:28:16.770Z,98969.91
2022-12-03T07:29:19.504Z,98968.25
2022-12-03T07:30:23.746Z,98965.53
2022-12-03T07:31:26.470Z,98966.38
2022-12-03T07:32:29.350Z,98974.13
2022-12-03T07:33:32.578Z,98969.97
2022-12-03T07:34:35.366Z,98968.25
2022-12-03T07:35:38.074Z,98969.31
2022-12-03T07:36:40.696Z,98971.75
2022-12-03T07:37:43.595Z,98969.16
2022-12-03T07:38:46.371Z,98971.69
2022-12-03T07:39:54.773Z,98966.06
2022-12-03T07:40:57.594Z,98973.63
2022-12-03T07:42:00.458Z,98975.06
2022-12-03T07:43:03.137Z,98976.22
2022-12-03T07:44:12.414Z,98976.06
2022-12-03T07:45:16.811Z,98971.91
2022-12-03T07:46:19.514Z,98972.19
2022-12-03T07:47:22.317Z,98958.84
2022-12-03T07:48:25.938Z,98959.25
2022-12-03T07:49:28.496Z,98961.50
2022-12-03T07:50:31.140Z,98968.88
2022-12-03T07:51:33.799Z,98960.47
2022-12-03T07:52:36.409Z,98963.06
2022-12-03T07:53:39.185Z,98964.28
2022-12-03T07:54:41.810Z,98966.06
2022-12-03T07:55:44.510Z,98952.22
2022-12-03T07:56:49.880Z,98960.91
2022-12-03T07:57:52.645Z,98962.13
2022-12-03T07:58:55.367Z,98954.31
2022-12-03T07:59:58.056Z,98958.41
2022-12-03T08:01:00.854Z,98957.84
2022-12-03T08:02:04.058Z,98962.69
2022-12-03T08:03:06.862Z,98960.91
2022-12-03T08:04:09.779Z,98963.91
2022-12-03T08:05:12.580Z,98957.53
2022-12-03T08:06:15.342Z,98961.06
2022-12-03T08:07:18.300Z,98957.75
2022-12-03T08:08:21.251Z,98964.06
2022-12-03T08:09:23.965Z,98965.66
2022-12-03T08:10:26.838Z,98972.25
2022-12-03T08:11:29.827Z,98968.53
2022-12-03T08:12:42.018Z,98972.25
2022-12-03T08:13:45.037Z,98965.34
2022-12-03T08:14:47.697Z,98967.44
2022-12-03T08:15:50.438Z,98962.22
2022-12-03T08:16:53.198Z,98969.38
2022-12-03T08:17:59.002Z,98970.91
2022-12-03T08:19:02.587Z,98965.31
2022-12-03T08:20:20.278Z,98964.28
2022-12-03T08:21:22.861Z,98969.31
2022-12-03T08:22:26.567Z,98971.09
2022-12-03T08:23:29.425Z,98976.28
2022-12-03T08:24:32.188Z,98970.09
2022-12-03T08:25:35.144Z,98980.50
2022-12-03T08:26:37.843Z,98976.94
2022-12-03T08:27:40.370Z,98979.63
2022-12-03T08:28:43.304Z,98979.19
2022-12-03T08:29:46.774Z,98971.94
2022-12-03T08:31:01.071Z,98972.06
2022-12-03T08:32:06.978Z,98971.16
2022-12-03T08:33:33.819Z,98970.94
2022-12-03T08:34:44.577Z,98970.00
2022-12-03T08:35:51.164Z,98960.47
2022-12-03T08:37:05.994Z,98963.87
2022-12-03T08:38:13.143Z,98964.31
2022-12-03T08:39:21.552Z,98960.94
2022-12-03T08:40:47.007Z,98963.47
2022-12-03T08:42:28.152Z,98964.31
2022-12-03T08:43:36.817Z,98954.25
2022-12-03T08:44:41.315Z,98972.06
2022-12-03T08:45:44.929Z,98963.31
2022-12-03T08:47:13.711Z,98961.03
2022-12-03T08:48:18.806Z,98971.75
2022-12-03T08:49:22.319Z,98980.66
2022-12-03T08:50:29.540Z,98979.84
2022-12-03T08:51:32.240Z,98984.38
2022-12-03T08:52:35.320Z,98993.38
2022-12-03T08:53:48.705Z,98991.34
2022-12-03T08:54:54.121Z,98990.00
2022-12-03T08:56:21.487Z,99002.63
2022-12-03T08:57:33.201Z,98993.34
2022-12-03T08:58:44.141Z,98995.94
2022-12-03T08:59:46.563Z,99002.84
2022-12-03T09:00:57.108Z,98998.56
2022-12-03T09:01:59.913Z,98996.88
2022-12-03T09:03:02.566Z,98994.47
2022-12-03T09:04:22.736Z,98996.06
2022-12-03T09:05:32.564Z,98994.69
2022-12-03T09:06:35.345Z,98991.41
2022-12-03T09:07:38.409Z,98993.97
2022-12-03T09:08:41.177Z,98988.13
2022-12-03T09:09:44.134Z,98988.66
2022-12-03T09:10:46.984Z,98983.09
2022-12-03T09:11:51.014Z,98975.25
2022-12-03T09:12:53.857Z,98977.31
2022-12-03T09:13:56.518Z,98978.25
2022-12-03T09:14:59.125Z,98973.06
2022-12-03T09:16:01.865Z,98976.94
2022-12-03T09:17:04.818Z,98975.13
2022-12-03T09:18:07.575Z,98974.19
2022-12-03T09:19:10.381Z,98976.50
2022-12-03T09:20:13.782Z,98971.03
2022-12-03T09:21:16.435Z,98972.13
2022-12-03T09:22:19.405Z,98981.56
2022-12-03T09:23:22.103Z,98970.63
2022-12-03T09:24:24.830Z,98967.81
2022-12-03T09:25:27.651Z,98966.91
2022-12-03T09:26:30.409Z,98966.56
2022-12-03T09:27:33.496Z,98964.37
2022-12-03T09:28:36.446Z,98967.03
2022-12-03T09:29:39.184Z,98956.97
2022-12-03T09:30:41.793Z,98960.28
2022-12-03T09:31:44.533Z,98969.84
2022-12-03T09:32:47.333Z,98966.56
2022-12-03T09:33:50.051Z,98964.69
2022-12-03T09:34:53.762Z,98968.84
2022-12-03T09:35:56.597Z,98965.16
2022-12-03T09:36:59.184Z,98971.44
2022-12-03T09:38:01.904Z,98977.63
2022-12-03T09:39:05.422Z,98975.22
2022-12-03T09:40:09.981Z,98968.28
2022-12-03T09:41:12.852Z,98962.03
2022-12-03T09:42:15.761Z,98963.38
2022-12-03T09:43:19.284Z,98959.31
2022-12-03T09:44:22.200Z,98954.34
2022-12-03T09:45:24.975Z,98959.22
2022-12-03T09:46:27.899Z,98963.41
2022-12-03T09:47:31.275Z,98955.63
2022-12-03T09:48:34.261Z,98961.44
2022-12-03T09:49:39.065Z,98968.50
2022-12-03T09:50:42.993Z,98963.28
2022-12-03T09:51:45.989Z,98960.16
2022-12-03T09:52:50.206Z,98967.69
2022-12-03T09:53:52.911Z,98962.84
2022-12-03T09:54:55.748Z,98966.75
2022-12-03T09:55:59.848Z,98970.06
2022-12-03T09:57:04.460Z,98970.06
2022-12-03T09:58:12.621Z,98962.78
2022-12-03T09:59:16.595Z,98947.44
2022-12-03T10:00:23.607Z,98954.16
2022-12-03T10:01:30.168Z,98943.03
2022-12-03T10:02:34.455Z,98932.53
2022-12-03T10:03:43.324Z,98944.22
2022-12-03T10:04:46.011Z,98946.41
2022-12-03T10:05:48.703Z,98946.22
2022-12-03T10:06:51.750Z,98948.91
2022-12-03T10:08:01.208Z,98941.06
2022-12-03T10:09:04.466Z,98941.47
2022-12-03T10:10:14.421Z,98935.03
2022-12-03T10:11:20.179Z,98937.22
2022-12-03T10:12:25.062Z,98947.38
2022-12-03T10:13:32.304Z,98946.00
2022-12-03T10:14:34.961Z,98939.41
2022-12-03T10:15:38.118Z,98942.03
2022-12-03T10:16:41.644Z,98939.56
2022-12-03T10:17:46.432Z,98939.44
2022-12-03T10:18:52.238Z,98939.59
2022-12-03T10:19:55.164Z,98940.50
2022-12-03T10:20:58.140Z,98929.88
2022-12-03T10:22:00.859Z,98937.75
2022-12-03T10:23:03.429Z,98935.88
2022-12-03T10:24:26.029Z,98933.25
2022-12-03T10:25:28.701Z,98923.72
2022-12-03T10:26:40.719Z,98922.16
2022-12-03T10:27:44.004Z,98917.97
2022-12-03T10:28:47.808Z,98921.06
2022-12-03T10:30:01.455Z,98922.50
2022-12-03T10:31:07.335Z,98915.34
2022-12-03T10:32:12.267Z,98915.28
2022-12-03T10:33:18.838Z,98924.41
2022-12-03T10:34:33.484Z,98909.16
2022-12-03T10:35:41.334Z,98914.84
2022-12-03T10:36:44.082Z,98903.37
2022-12-03T10:38:04.465Z,98905.66
2022-12-03T10:39:17.165Z,98906.22
2022-12-03T10:40:25.093Z,98911.72
2022-12-03T10:41:28.625Z,98920.50
2022-12-03T10:42:37.406Z,98913.44
2022-12-03T10:43:39.967Z,98905.16
2022-12-03T10:44:42.723Z,98900.75
2022-12-03T10:46:12.357Z,98898.34
2022-12-03T10:47:16.506Z,98895.63
2022-12-03T10:48:27.844Z,98902.22
2022-12-03T10:49:31.335Z,98901.25
2022-12-03T10:50:34.882Z,98904.41
2022-12-03T10:51:39.536Z,98909.63
2022-12-03T10:52:42.350Z,98904.94
2022-12-03T10:53:45.008Z,98901.28
2022-12-03T10:54:47.782Z,98902.75
2022-12-03T10:55:52.714Z,98906.31
2022-12-03T10:56:56.247Z,98906.94
2022-12-03T10:57:58.848Z,98897.38
2022-12-03T10:59:01.533Z,98895.03
2022-12-03T11:00:05.517Z,98900.75
2022-12-03T11:01:19.155Z,98898.66
2022-12-03T11:02:24.781Z,98899.12
2022-12-03T11:03:30.625Z,98896.78
2022-12-03T11:04:36.129Z,98895.63
2022-12-03T11:05:38.781Z,98888.31
2022-12-03T11:06:41.510Z,98891.28
2022-12-03T11:07:45.021Z,98892.88
2022-12-03T11:08:56.756Z,98891.56
2022-12-03T11:10:02.798Z,98891.31
2022-12-03T11:11:16.587Z,98889.25
2022-12-03T11:12:26.007Z,98892.38
2022-12-03T11:13:34.511Z,98889.47
2022-12-03T11:14:49.038Z,98895.97
2022-12-03T11:15:51.812Z,98881.63
2022-12-03T11:16:54.935Z,98892.78
2022-12-03T11:17:57.629Z,98885.00
2022-12-03T11:19:02.459Z,98882.38
2022-12-03T11:20:06.473Z,98885.53
2022-12-03T11:21:14.149Z,98878.03
2022-12-03T11:22:25.156Z,98874.38
2022-12-03T11:23:45.975Z,98864.19
2022-12-03T11:25:31.594Z,98866.78
2022-12-03T11:26:37.196Z,98867.06
2022-12-03T11:27:40.325Z,98870.31
2022-12-03T11:28:45.920Z,98869.91
2022-12-03T11:30:00.292Z,98863.13
2022-12-03T11:31:11.712Z,98868.38
2022-12-03T11:33:00.581Z,98861.72
2022-12-03T11:34:18.331Z,98866.16
2022-12-03T11:35:23.710Z,98865.28
2022-12-03T11:36:47.678Z,98871.59
2022-12-03T11:37:49.706Z,98864.53
2022-12-03T11:38:54.237Z,98862.56
2022-12-03T11:40:01.533Z,98860.94
2022-12-03T11:41:14.641Z,98865.19
2022-12-03T11:42:26.268Z,98856.94
2022-12-03T11:43:53.925Z,98846.53
2022-12-03T11:45:06.464Z,98860.03
2022-12-03T11:46:10.345Z,98859.81
2022-12-03T11:47:16.550Z,98853.47
2022-12-03T11:48:20.437Z,98857.28
2022-12-03T11:49:25.815Z,98857.75
2022-12-03T11:50:28.512Z,98854.53
2022-12-03T11:51:31.615Z,98865.56
2022-12-03T11:52:44.307Z,98862.06
2022-12-03T11:53:47.251Z,98861.22
2022-12-03T11:54:54.051Z,98865.78
2022-12-03T11:56:11.284Z,98860.78
2022-12-03T11:57:31.125Z,98855.38
2022-12-03T11:58:38.781Z,98854.56
2022-12-03T12:00:16.449Z,98845.97
2022-12-03T12:01:39.254Z,98845.88
2022-12-03T12:02:42.281Z,98849.94
2022-12-03T12:03:47.866Z,98852.22
2022-12-03T12:04:50.793Z,98849.97
2022-12-03T12:06:03.442Z,98849.38
2022-12-03T12:07:06.351Z,98843.78
2022-12-03T12:08:18.959Z,98845.25
2022-12-03T12:09:51.317Z,98842.28
2022-12-03T12:10:54.127Z,98835.44
2022-12-03T12:11:56.775Z,98828.25
2022-12-03T12:12:59.704Z,98832.34
2022-12-03T12:14:11.091Z,98829.41
2022-12-03T12:15:38.570Z,98824.12
2022-12-03T12:16:51.926Z,98821.88
2022-12-03T12:17:54.612Z,98821.66
2022-12-03T12:18:57.304Z,98819.75
2022-12-03T12:20:27.968Z,98824.94
2022-12-03T12:21:48.297Z,98819.63
2022-12-03T12:22:53.030Z,98818.44
2022-12-03T12:23:55.881Z,98814.25
2022-12-03T12:25:05.477Z,98825.63
2022-12-03T12:26:08.116Z,98817.69
2022-12-03T12:27:12.900Z,98822.16
2022-12-03T12:28:15.852Z,98824.28
2022-12-03T12:29:18.791Z,98820.63
2022-12-03T12:30:23.401Z,98821.69
2022-12-03T12:31:26.121Z,98821.31
2022-12-03T12:32:34.372Z,98819.66
2022-12-03T12:33:36.940Z,98814.13
2022-12-03T12:34:41.697Z,98820.63
2022-12-03T12:35:44.492Z,98825.13
2022-12-03T12:36:47.374Z,98826.16
2022-12-03T12:37:59.026Z,98819.50
2022-12-03T12:39:15.818Z,98822.91
2022-12-03T12:40:19.493Z,98819.50
2022-12-03T12:41:22.167Z,98820.03
2022-12-03T12:42:30.251Z,98817.38
2022-12-03T12:43:34.002Z,98826.34
2022-12-03T12:44:36.777Z,98818.84
2022-12-03T12:45:42.291Z,98820.75
2022-12-03T12:46:53.988Z,98821.03
2022-12-03T12:48:07.525Z,98817.63